createdAt,value
2017-02-28T00:00:39.301Z,99.99
2017-02-28T00:01:39.277Z,99.99
2017-02-28T00:02:39.262Z,99.99
2017-02-28T00:03:39.260Z,99.99
2017-02-28T00:04:39.234Z,99.99
2017-02-28T00:05:39.209Z,99.99
2017-02-28T00:06:39.192Z,99.99
2017-02-28T00:07:39.177Z,99.99
2017-02-28T00:08:39.179Z,99.99
2017-02-28T00:09:39.142Z,99.99
2017-02-28T00:10:39.121Z,99.99
2017-02-28T00:11:39.107Z,99.99
2017-02-28T00:12:39.082Z,99.99
2017-02-28T00:13:39.066Z,99.99
2017-02-28T00:14:39.046Z,99.99
2017-02-28T00:15:39.029Z,99.99
2017-02-28T00:16:39.014Z,99.99
2017-02-28T00:17:38.995Z,99.99
2017-02-28T00:18:38.577Z,99.99
2017-02-28T00:19:38.961Z,99.99
2017-02-28T00:20:38.936Z,99.99
2017-02-28T00:21:38.927Z,99.99
2017-02-28T00:22:38.908Z,99.99
2017-02-28T00:23:38.882Z,99.99
2017-02-28T00:24:38.868Z,99.99
2017-02-28T00:25:38.844Z,99.99
2017-02-28T00:26:38.822Z,99.99
2017-02-28T00:27:38.812Z,99.99
2017-02-28T00:28:38.796Z,99.99
2017-02-28T00:29:38.771Z,99.99
2017-02-28T00:30:38.750Z,99.99
2017-02-28T00:31:38.733Z,99.99
2017-02-28T00:32:38.709Z,99.99
2017-02-28T00:33:38.690Z,99.99
2017-02-28T00:34:38.671Z,99.99
2017-02-28T00:35:38.669Z,99.99
2017-02-28T00:36:38.634Z,99.99
2017-02-28T00:37:38.639Z,99.99
2017-02-28T00:38:38.598Z,99.99
2017-02-28T00:39:38.574Z,99.99
2017-02-28T00:40:38.560Z,99.99
2017-02-28T00:41:38.540Z,99.99
2017-02-28T00:42:38.535Z,99.99
2017-02-28T00:43:38.513Z,99.99
2017-02-28T00:44:38.493Z,99.99
2017-02-28T00:45:38.461Z,99.99
2017-02-28T00:46:38.443Z,99.99
2017-02-28T00:47:38.426Z,99.99
2017-02-28T00:48:38.409Z,99.99
2017-02-28T00:49:38.388Z,99.99
2017-02-28T00:50:38.372Z,99.99
2017-02-28T00:51:38.358Z,99.99
2017-02-28T00:52:38.329Z,99.99
2017-02-28T00:53:38.316Z,99.99
2017-02-28T00:54:38.310Z,99.99
2017-02-28T00:55:38.274Z,99.99
2017-02-28T00:56:38.259Z,99.99
2017-02-28T00:57:38.236Z,99.99
2017-02-28T00:58:37.830Z,99.99
2017-02-28T00:59:38.200Z,99.99
2017-02-28T01:00:38.182Z,99.99
2017-02-28T01:01:38.160Z,99.99
2017-02-28T01:02:38.139Z,99.99
2017-02-28T01:03:38.119Z,99.99
2017-02-28T01:04:38.099Z,99.99
2017-02-28T01:05:38.088Z,99.99
2017-02-28T01:06:38.067Z,99.99
2017-02-28T01:07:38.041Z,99.99
2017-02-28T01:08:38.021Z,99.99
2017-02-28T01:09:38.005Z,99.99
2017-02-28T01:10:37.984Z,99.99
2017-02-28T01:11:37.970Z,99.99
2017-02-28T01:12:37.943Z,99.99
2017-02-28T01:13:37.930Z,99.99
2017-02-28T01:14:37.918Z,99.99
2017-02-28T01:15:37.886Z,99.99
2017-02-28T01:16:37.871Z,99.99
2017-02-28T01:17:37.850Z,99.99
2017-02-28T01:18:37.844Z,99.99
2017-02-28T01:19:37.819Z,99.99
2017-02-28T01:20:37.788Z,99.99
2017-02-28T01:21:37.779Z,99.99
2017-02-28T01:22:37.750Z,99.99
2017-02-28T01:23:37.730Z,99.99
2017-02-28T01:24:37.317Z,99.99
2017-02-28T01:25:37.701Z,99.99
2017-02-28T01:26:37.676Z,99.99
2017-02-28T01:27:37.657Z,99.99
2017-02-28T01:28:37.634Z,99.99
2017-02-28T01:29:37.615Z,99.99
2017-02-28T01:30:37.598Z,99.99
2017-02-28T01:31:37.575Z,99.99
2017-02-28T01:32:37.568Z,99.99
2017-02-28T01:33:37.547Z,99.99
2017-02-28T01:34:37.517Z,99.99
2017-02-28T01:35:37.110Z,99.99
2017-02-28T01:36:37.481Z,99.99
2017-02-28T01:37:37.476Z,99.99
2017-02-28T01:38:37.450Z,99.99
2017-02-28T01:39:37.445Z,99.99
2017-02-28T01:40:37.401Z,99.99
2017-02-28T01:41:37.383Z,99.99
2017-02-28T01:42:36.967Z,99.99
2017-02-28T01:43:37.348Z,99.99
2017-02-28T01:44:37.324Z,99.99
2017-02-28T01:45:37.307Z,99.99
2017-02-28T01:46:37.301Z,99.99
2017-02-28T01:47:37.267Z,99.99
2017-02-28T01:48:37.247Z,99.99
2017-02-28T01:49:37.230Z,99.99
2017-02-28T01:50:37.204Z,99.99
2017-02-28T01:51:37.188Z,99.99
2017-02-28T01:52:37.192Z,99.99
2017-02-28T01:53:37.152Z,99.99
2017-02-28T01:54:37.146Z,99.99
2017-02-28T01:55:37.107Z,99.99
2017-02-28T01:56:37.093Z,99.99
2017-02-28T01:57:37.076Z,99.99
2017-02-28T01:58:37.052Z,99.99
2017-02-28T01:59:37.038Z,99.99
2017-02-28T02:00:37.024Z,99.99
2017-02-28T02:01:36.999Z,99.99
2017-02-28T02:02:36.988Z,99.99
2017-02-28T02:03:36.957Z,99.99
2017-02-28T02:04:36.932Z,99.99
2017-02-28T02:05:36.914Z,99.99
2017-02-28T02:06:36.909Z,99.99
2017-02-28T02:07:36.877Z,99.99
2017-02-28T02:08:36.860Z,99.99
2017-02-28T02:09:36.840Z,99.99
2017-02-28T02:10:36.825Z,99.99
2017-02-28T02:11:36.803Z,99.99
2017-02-28T02:12:36.779Z,99.99
2017-02-28T02:13:36.766Z,99.99
2017-02-28T02:14:36.754Z,99.99
2017-02-28T02:15:36.737Z,99.99
2017-02-28T02:16:36.701Z,99.99
2017-02-28T02:17:36.707Z,99.99
2017-02-28T02:18:36.669Z,99.99
2017-02-28T02:19:36.641Z,99.99
2017-02-28T02:20:36.629Z,99.99
2017-02-28T02:21:36.603Z,99.99
2017-02-28T02:22:36.582Z,99.99
2017-02-28T02:23:36.566Z,99.99
2017-02-28T02:24:36.544Z,99.99
2017-02-28T02:25:36.528Z,99.99
2017-02-28T02:26:36.510Z,99.99
2017-02-28T02:27:36.487Z,99.99
2017-02-28T02:28:36.468Z,99.99
2017-02-28T02:29:36.448Z,99.99
2017-02-28T02:30:36.434Z,99.99
2017-02-28T02:31:36.021Z,99.99
2017-02-28T02:32:36.406Z,99.99
2017-02-28T02:33:36.372Z,99.99
2017-02-28T02:34:36.354Z,99.99
2017-02-28T02:35:36.340Z,99.99
2017-02-28T02:36:36.312Z,99.99
2017-02-28T02:37:36.293Z,99.99
2017-02-28T02:38:36.275Z,99.99
2017-02-28T02:39:36.254Z,99.99
2017-02-28T02:40:36.237Z,99.99
2017-02-28T02:41:36.213Z,99.99
2017-02-28T02:42:36.220Z,99.99
2017-02-28T02:43:36.189Z,99.99
2017-02-28T02:44:36.161Z,99.99
2017-02-28T02:45:36.138Z,99.99
2017-02-28T02:46:36.129Z,99.99
2017-02-28T02:47:36.117Z,99.99
2017-02-28T02:48:36.289Z,99.99
2017-02-28T02:49:36.063Z,99.99
2017-02-28T02:50:36.040Z,99.99
2017-02-28T02:51:36.021Z,99.99
2017-02-28T02:52:36.012Z,99.99
2017-02-28T02:53:35.982Z,99.99
2017-02-28T02:54:35.966Z,99.99
2017-02-28T02:55:35.946Z,99.99
2017-02-28T02:56:35.926Z,99.99
2017-02-28T02:57:35.904Z,99.99
2017-02-28T02:58:35.892Z,99.99
2017-02-28T02:59:35.870Z,99.99
2017-02-28T03:00:35.852Z,99.99
2017-02-28T03:01:35.846Z,99.99
2017-02-28T03:02:35.813Z,99.99
2017-02-28T03:03:35.799Z,99.99
2017-02-28T03:04:35.776Z,99.99
2017-02-28T03:05:35.761Z,99.99
2017-02-28T03:06:35.731Z,99.99
2017-02-28T03:07:35.705Z,99.99
2017-02-28T03:08:35.687Z,99.99
2017-02-28T03:09:35.669Z,99.99
2017-02-28T03:10:35.649Z,99.99
2017-02-28T03:11:35.637Z,99.99
2017-02-28T03:12:35.606Z,99.99
2017-02-28T03:13:35.592Z,99.99
2017-02-28T03:14:35.567Z,99.99
2017-02-28T03:15:35.549Z,99.99
2017-02-28T03:16:35.531Z,99.99
2017-02-28T03:17:35.510Z,99.99
2017-02-28T03:18:35.499Z,99.99
2017-02-28T03:19:35.482Z,99.99
2017-02-28T03:20:35.449Z,99.99
2017-02-28T03:21:35.426Z,99.99
2017-02-28T03:22:35.408Z,99.99
2017-02-28T03:23:35.386Z,99.99
2017-02-28T03:24:35.366Z,99.99
2017-02-28T03:25:35.344Z,99.99
2017-02-28T03:26:35.327Z,99.99
2017-02-28T03:27:35.307Z,99.99
2017-02-28T03:28:35.287Z,99.99
2017-02-28T03:29:35.278Z,99.99
2017-02-28T03:30:35.246Z,99.99
2017-02-28T03:31:35.233Z,99.99
2017-02-28T03:32:35.210Z,99.99
2017-02-28T03:33:35.189Z,99.99
2017-02-28T03:34:35.173Z,99.99
2017-02-28T03:35:35.142Z,99.99
2017-02-28T03:36:34.727Z,99.99
2017-02-28T03:37:35.124Z,99.99
2017-02-28T03:38:35.089Z,99.99
2017-02-28T03:39:35.084Z,99.99
2017-02-28T03:40:35.043Z,99.99
2017-02-28T03:41:35.025Z,99.99
2017-02-28T03:42:35.002Z,99.99
2017-02-28T03:43:34.984Z,99.99
2017-02-28T03:44:34.962Z,99.99
2017-02-28T03:45:34.941Z,99.99
2017-02-28T03:46:34.930Z,99.99
2017-02-28T03:47:34.509Z,99.99
2017-02-28T03:48:34.895Z,99.99
2017-02-28T03:49:34.866Z,99.99
2017-02-28T03:50:34.858Z,99.99
2017-02-28T03:51:34.425Z,99.99
2017-02-28T03:52:34.806Z,99.99
2017-02-28T03:53:34.387Z,99.99
2017-02-28T03:54:34.766Z,99.99
2017-02-28T03:55:34.748Z,99.99
2017-02-28T03:56:34.323Z,99.99
2017-02-28T03:57:34.310Z,99.99
2017-02-28T03:58:34.283Z,99.99
2017-02-28T03:59:34.261Z,99.99
2017-02-28T04:00:34.636Z,99.99
2017-02-28T04:01:34.222Z,99.99
2017-02-28T04:02:34.603Z,99.99
2017-02-28T04:03:34.581Z,99.99
2017-02-28T04:04:34.559Z,99.99
2017-02-28T04:05:34.545Z,99.99
2017-02-28T04:06:34.532Z,99.99
2017-02-28T04:07:34.505Z,99.99
2017-02-28T04:08:34.495Z,99.99
2017-02-28T04:09:34.069Z,99.99
2017-02-28T04:10:34.437Z,99.99
2017-02-28T04:11:34.429Z,99.99
2017-02-28T04:12:34.397Z,99.99
2017-02-28T04:13:34.392Z,99.99
2017-02-28T04:14:34.356Z,99.99
2017-02-28T04:15:34.346Z,99.99
2017-02-28T04:16:33.923Z,99.99
2017-02-28T04:17:34.310Z,99.99
2017-02-28T04:18:34.281Z,99.99
2017-02-28T04:19:34.266Z,99.99
2017-02-28T04:20:34.237Z,99.99
2017-02-28T04:21:34.222Z,99.99
2017-02-28T04:22:34.209Z,99.99
2017-02-28T04:23:34.185Z,99.99
2017-02-28T04:24:34.167Z,99.99
2017-02-28T04:25:34.147Z,99.99
2017-02-28T04:26:34.131Z,99.99
2017-02-28T04:27:34.102Z,99.99
2017-02-28T04:28:34.080Z,99.99
2017-02-28T04:29:34.058Z,99.99
2017-02-28T04:30:34.040Z,99.99
2017-02-28T04:31:34.021Z,99.99
2017-02-28T04:32:34.002Z,99.99
2017-02-28T04:33:33.980Z,99.99
2017-02-28T04:34:33.968Z,99.99
2017-02-28T04:35:33.952Z,99.99
2017-02-28T04:36:33.944Z,99.99
2017-02-28T04:37:33.918Z,99.99
2017-02-28T04:38:33.884Z,99.99
2017-02-28T04:39:33.882Z,99.99
2017-02-28T04:40:33.845Z,99.99
2017-02-28T04:41:33.825Z,99.99
2017-02-28T04:42:33.817Z,99.99
2017-02-28T04:43:33.792Z,99.99
2017-02-28T04:44:33.783Z,99.99
2017-02-28T04:45:33.751Z,99.99
2017-02-28T04:46:33.722Z,99.99
2017-02-28T04:47:33.707Z,99.99
2017-02-28T04:48:33.889Z,99.99
2017-02-28T04:49:33.666Z,99.99
2017-02-28T04:50:33.647Z,99.99
2017-02-28T04:51:33.631Z,99.99
2017-02-28T04:52:33.212Z,99.99
2017-02-28T04:53:33.588Z,99.99
2017-02-28T04:54:33.569Z,99.99
2017-02-28T04:55:33.548Z,99.99
2017-02-28T04:56:33.536Z,99.99
2017-02-28T04:57:33.112Z,99.99
2017-02-28T04:58:33.098Z,99.99
2017-02-28T04:59:33.485Z,99.99
2017-02-28T05:00:33.452Z,99.99
2017-02-28T05:01:33.429Z,99.99
2017-02-28T05:02:33.422Z,99.99
2017-02-28T05:03:33.390Z,99.99
2017-02-28T05:04:33.377Z,99.99
2017-02-28T05:05:33.351Z,99.99
2017-02-28T05:06:32.933Z,99.99
2017-02-28T05:07:33.314Z,99.99
2017-02-28T05:08:33.293Z,99.99
2017-02-28T05:09:33.276Z,99.99
2017-02-28T05:10:32.850Z,99.99
2017-02-28T05:11:33.254Z,99.99
2017-02-28T05:12:33.209Z,99.99
2017-02-28T05:13:33.193Z,99.99
2017-02-28T05:14:33.175Z,99.99
2017-02-28T05:15:33.154Z,99.99
2017-02-28T05:16:33.131Z,99.99
2017-02-28T05:17:33.117Z,99.99
2017-02-28T05:18:33.089Z,99.99
2017-02-28T05:19:33.077Z,99.99
2017-02-28T05:20:33.057Z,99.99
2017-02-28T05:21:32.639Z,99.99
2017-02-28T05:22:32.628Z,99.99
2017-02-28T05:23:32.991Z,99.99
2017-02-28T05:24:32.989Z,99.99
2017-02-28T05:25:32.953Z,99.99
2017-02-28T05:26:32.944Z,99.99
2017-02-28T05:27:32.913Z,99.99
2017-02-28T05:28:32.899Z,99.99
2017-02-28T05:29:32.876Z,99.99
2017-02-28T05:30:32.852Z,99.99
2017-02-28T05:31:32.835Z,99.99
2017-02-28T05:32:32.817Z,99.99
2017-02-28T05:33:32.811Z,99.99
2017-02-28T05:34:32.784Z,99.99
2017-02-28T05:35:32.771Z,99.99
2017-02-28T05:36:32.758Z,99.99
2017-02-28T05:37:32.319Z,99.99
2017-02-28T05:38:32.697Z,99.99
2017-02-28T05:39:32.696Z,99.99
2017-02-28T05:40:32.672Z,99.99
2017-02-28T05:41:32.640Z,99.99
2017-02-28T05:42:32.620Z,99.99
2017-02-28T05:43:32.596Z,99.99
2017-02-28T05:44:32.578Z,99.99
2017-02-28T05:45:32.573Z,99.99
2017-02-28T05:46:32.549Z,99.99
2017-02-28T05:47:32.516Z,99.99
2017-02-28T05:48:32.500Z,99.99
2017-02-28T05:49:32.478Z,99.99
2017-02-28T05:50:32.462Z,99.99
2017-02-28T05:51:32.479Z,99.99
2017-02-28T05:52:32.427Z,99.99
2017-02-28T05:53:32.411Z,99.99
2017-02-28T05:54:32.389Z,99.99
2017-02-28T05:55:32.367Z,99.99
2017-02-28T05:56:32.351Z,99.99
2017-02-28T05:57:32.325Z,99.99
2017-02-28T05:58:32.303Z,99.99
2017-02-28T05:59:32.283Z,99.99
2017-02-28T06:00:32.261Z,99.99
2017-02-28T06:01:32.245Z,99.99
2017-02-28T06:02:32.229Z,99.99
2017-02-28T06:03:32.209Z,99.99
2017-02-28T06:04:32.184Z,99.99
2017-02-28T06:05:32.174Z,99.99
2017-02-28T06:06:32.144Z,99.99
2017-02-28T06:07:32.149Z,99.99
2017-02-28T06:08:32.118Z,99.99
2017-02-28T06:09:32.103Z,99.99
2017-02-28T06:10:32.067Z,99.99
2017-02-28T06:11:32.052Z,99.99
2017-02-28T06:12:32.027Z,99.99
2017-02-28T06:13:32.016Z,99.99
2017-02-28T06:14:32.006Z,99.99
2017-02-28T06:15:31.973Z,99.99
2017-02-28T06:16:31.958Z,99.99
2017-02-28T06:17:31.935Z,99.99
2017-02-28T06:18:31.911Z,99.99
2017-02-28T06:19:31.897Z,99.99
2017-02-28T06:20:31.880Z,99.99
2017-02-28T06:21:31.864Z,99.99
2017-02-28T06:22:31.835Z,99.99
2017-02-28T06:23:31.829Z,99.99
2017-02-28T06:24:31.800Z,99.99
2017-02-28T06:25:31.782Z,99.99
2017-02-28T06:26:31.759Z,99.99
2017-02-28T06:27:31.741Z,99.99
2017-02-28T06:28:31.720Z,99.99
2017-02-28T06:29:31.943Z,99.99
2017-02-28T06:30:31.697Z,99.99
2017-02-28T06:31:31.666Z,99.99
2017-02-28T06:32:31.646Z,99.99
2017-02-28T06:33:31.638Z,99.99
2017-02-28T06:34:31.604Z,99.99
2017-02-28T06:35:31.587Z,99.99
2017-02-28T06:36:31.172Z,99.99
2017-02-28T06:37:31.548Z,99.99
2017-02-28T06:38:31.527Z,99.99
2017-02-28T06:39:31.508Z,99.99
2017-02-28T06:40:31.500Z,99.99
2017-02-28T06:41:31.475Z,99.99
2017-02-28T06:42:31.454Z,99.99
2017-02-28T06:43:31.430Z,99.99
2017-02-28T06:44:31.417Z,99.99
2017-02-28T06:45:31.398Z,99.99
2017-02-28T06:46:31.378Z,99.99
2017-02-28T06:47:30.972Z,99.99
2017-02-28T06:48:31.535Z,99.99
2017-02-28T06:49:31.318Z,99.99
2017-02-28T06:50:31.294Z,99.99
2017-02-28T06:51:31.285Z,99.99
2017-02-28T06:52:31.256Z,99.99
2017-02-28T06:53:31.241Z,99.99
2017-02-28T06:54:31.218Z,99.99
2017-02-28T06:55:31.214Z,99.99
2017-02-28T06:56:31.180Z,99.99
2017-02-28T06:57:31.161Z,99.99
2017-02-28T06:58:31.141Z,99.99
2017-02-28T06:59:31.129Z,99.99
2017-02-28T07:00:31.106Z,99.99
2017-02-28T07:01:31.080Z,99.99
2017-02-28T07:02:31.063Z,99.99
2017-02-28T07:03:31.041Z,99.99
2017-02-28T07:04:30.633Z,99.99
2017-02-28T07:05:31.009Z,99.99
2017-02-28T07:06:30.982Z,99.99
2017-02-28T07:07:30.969Z,99.99
2017-02-28T07:08:30.961Z,99.99
2017-02-28T07:09:30.926Z,99.99
2017-02-28T07:10:30.510Z,99.99
2017-02-28T07:11:30.495Z,99.99
2017-02-28T07:12:30.880Z,99.99
2017-02-28T07:13:30.452Z,99.99
2017-02-28T07:14:30.840Z,99.99
2017-02-28T07:15:30.811Z,99.99
2017-02-28T07:16:30.792Z,99.99
2017-02-28T07:17:30.789Z,99.99
2017-02-28T07:18:30.356Z,99.99
2017-02-28T07:19:30.750Z,99.99
2017-02-28T07:20:30.721Z,99.99
2017-02-28T07:21:30.706Z,99.99
2017-02-28T07:22:30.676Z,99.99
2017-02-28T07:23:30.673Z,99.99
2017-02-28T07:24:30.649Z,99.99
2017-02-28T07:25:30.618Z,99.99
2017-02-28T07:26:30.600Z,99.99
2017-02-28T07:27:30.578Z,99.99
2017-02-28T07:28:30.568Z,99.99
2017-02-28T07:29:30.154Z,99.99
2017-02-28T07:30:30.522Z,99.99
2017-02-28T07:31:30.514Z,99.99
2017-02-28T07:32:30.485Z,99.99
2017-02-28T07:33:30.466Z,99.99
2017-02-28T07:34:30.444Z,99.99
2017-02-28T07:35:30.428Z,99.99
2017-02-28T07:36:30.011Z,99.99
2017-02-28T07:37:30.388Z,99.99
2017-02-28T07:38:30.367Z,99.99
2017-02-28T07:39:30.352Z,99.99
2017-02-28T07:40:29.933Z,99.99
2017-02-28T07:41:30.310Z,99.99
2017-02-28T07:42:30.290Z,99.99
2017-02-28T07:43:29.878Z,99.99
2017-02-28T07:44:30.263Z,99.99
2017-02-28T07:45:29.838Z,99.99
2017-02-28T07:46:30.231Z,99.99
2017-02-28T07:47:29.800Z,99.99
2017-02-28T07:48:30.178Z,99.99
2017-02-28T07:49:30.156Z,99.99
2017-02-28T07:50:30.138Z,99.99
2017-02-28T07:51:30.131Z,99.99
2017-02-28T07:52:30.119Z,99.99
2017-02-28T07:53:30.081Z,99.99
2017-02-28T07:54:30.062Z,99.99
2017-02-28T07:55:30.045Z,99.99
2017-02-28T07:56:30.020Z,99.99
2017-02-28T07:57:30.010Z,99.99
2017-02-28T07:58:29.985Z,99.99
2017-02-28T07:59:29.966Z,99.99
2017-02-28T08:00:29.949Z,99.99
2017-02-28T08:01:29.928Z,99.99
2017-02-28T08:02:29.911Z,99.99
2017-02-28T08:03:29.891Z,99.99
2017-02-28T08:04:29.875Z,99.99
2017-02-28T08:05:29.849Z,99.99
2017-02-28T08:06:29.835Z,99.99
2017-02-28T08:07:29.814Z,99.99
2017-02-28T08:08:29.822Z,99.99
2017-02-28T08:09:29.382Z,99.99
2017-02-28T08:10:29.756Z,99.99
2017-02-28T08:11:29.740Z,99.99
2017-02-28T08:12:29.734Z,99.99
2017-02-28T08:13:29.714Z,99.99
2017-02-28T08:14:29.698Z,99.99
2017-02-28T08:15:29.663Z,99.99
2017-02-28T08:16:29.669Z,99.99
2017-02-28T08:17:29.639Z,99.99
2017-02-28T08:18:29.605Z,99.99
2017-02-28T08:19:29.592Z,99.99
2017-02-28T08:20:29.582Z,99.99
2017-02-28T08:21:29.550Z,99.99
2017-02-28T08:22:29.532Z,99.99
2017-02-28T08:23:29.125Z,99.99
2017-02-28T08:24:29.499Z,99.99
2017-02-28T08:25:29.475Z,99.99
2017-02-28T08:26:29.456Z,99.99
2017-02-28T08:27:29.438Z,99.99
2017-02-28T08:28:29.024Z,99.99
2017-02-28T08:29:29.415Z,99.99
2017-02-28T08:30:29.383Z,99.99
2017-02-28T08:31:29.365Z,99.99
2017-02-28T08:32:29.350Z,99.99
2017-02-28T08:33:29.326Z,99.99
2017-02-28T08:34:29.306Z,99.99
2017-02-28T08:35:29.287Z,99.99
2017-02-28T08:36:29.272Z,99.99
2017-02-28T08:37:29.259Z,99.99
2017-02-28T08:38:29.237Z,99.99
2017-02-28T08:39:28.816Z,99.99
2017-02-28T08:40:29.196Z,99.99
2017-02-28T08:41:29.187Z,99.99
2017-02-28T08:42:29.157Z,99.99
2017-02-28T08:43:29.139Z,99.99
2017-02-28T08:44:29.119Z,99.99
2017-02-28T08:45:29.115Z,99.99
2017-02-28T08:46:29.091Z,99.99
2017-02-28T08:47:29.073Z,99.99
2017-02-28T08:48:29.241Z,99.99
2017-02-28T08:49:29.037Z,99.99
2017-02-28T08:50:29.007Z,99.99
2017-02-28T08:51:28.996Z,99.99
2017-02-28T08:52:28.976Z,99.99
2017-02-28T08:53:28.950Z,99.99
2017-02-28T08:54:28.543Z,99.99
2017-02-28T08:55:28.922Z,99.99
2017-02-28T08:56:28.893Z,99.99
2017-02-28T08:57:28.882Z,99.99
2017-02-28T08:58:28.853Z,99.99
2017-02-28T08:59:28.837Z,99.99
2017-02-28T09:00:28.821Z,99.99
2017-02-28T09:01:28.802Z,99.99
2017-02-28T09:02:28.778Z,99.99
2017-02-28T09:03:28.776Z,99.99
2017-02-28T09:04:28.750Z,99.99
2017-02-28T09:05:28.728Z,99.99
2017-02-28T09:06:28.718Z,99.99
2017-02-28T09:07:28.685Z,99.99
2017-02-28T09:08:28.667Z,99.99
2017-02-28T09:09:28.651Z,99.99
2017-02-28T09:10:28.629Z,99.99
2017-02-28T09:11:28.610Z,99.99
2017-02-28T09:12:28.594Z,99.99
2017-02-28T09:13:28.575Z,99.99
2017-02-28T09:14:28.560Z,99.99
2017-02-28T09:15:28.541Z,99.99
2017-02-28T09:16:28.523Z,99.99
2017-02-28T09:17:28.503Z,99.99
2017-02-28T09:18:28.480Z,99.99
2017-02-28T09:19:28.462Z,99.99
2017-02-28T09:20:28.446Z,99.99
2017-02-28T09:21:28.430Z,99.99
2017-02-28T09:22:28.411Z,99.99
2017-02-28T09:23:28.397Z,99.99
2017-02-28T09:24:28.374Z,99.99
2017-02-28T09:25:28.373Z,99.99
2017-02-28T09:26:28.349Z,99.99
2017-02-28T09:27:27.920Z,99.99
2017-02-28T09:28:28.301Z,99.99
2017-02-28T09:29:28.291Z,99.99
2017-02-28T09:30:28.282Z,99.99
2017-02-28T09:31:28.248Z,99.99
2017-02-28T09:32:28.225Z,99.99
2017-02-28T09:33:28.221Z,99.99
2017-02-28T09:34:28.196Z,99.99
2017-02-28T09:35:28.185Z,99.99
2017-02-28T09:36:28.168Z,99.99
2017-02-28T09:37:28.154Z,99.99
2017-02-28T09:38:28.120Z,99.99
2017-02-28T09:39:28.110Z,99.99
2017-02-28T09:40:28.093Z,99.99
2017-02-28T09:41:28.067Z,99.99
2017-02-28T09:42:28.049Z,99.99
2017-02-28T09:43:28.031Z,99.99
2017-02-28T09:44:28.013Z,99.99
2017-02-28T09:45:27.612Z,99.99
2017-02-28T09:46:27.978Z,99.99
2017-02-28T09:47:27.962Z,99.99
2017-02-28T09:48:27.946Z,99.99
2017-02-28T09:49:27.927Z,99.99
2017-02-28T09:50:27.905Z,99.99
2017-02-28T09:51:27.897Z,99.99
2017-02-28T09:52:27.875Z,99.99
2017-02-28T09:53:27.863Z,99.99
2017-02-28T09:54:27.853Z,99.99
2017-02-28T09:55:27.823Z,99.99
2017-02-28T09:56:27.811Z,99.99
2017-02-28T09:57:27.789Z,99.99
2017-02-28T09:58:27.769Z,99.99
2017-02-28T09:59:27.748Z,99.99
2017-02-28T10:00:27.730Z,99.99
2017-02-28T10:01:27.723Z,99.99
2017-02-28T10:02:27.700Z,99.99
2017-02-28T10:03:27.690Z,99.99
2017-02-28T10:04:27.664Z,99.99
2017-02-28T10:05:27.646Z,99.99
2017-02-28T10:06:27.631Z,99.99
2017-02-28T10:07:27.611Z,99.99
2017-02-28T10:08:27.599Z,99.99
2017-02-28T10:09:27.187Z,99.99
2017-02-28T10:10:27.567Z,99.99
2017-02-28T10:11:27.548Z,99.99
2017-02-28T10:12:27.534Z,99.99
2017-02-28T10:13:27.525Z,99.99
2017-02-28T10:14:27.498Z,99.99
2017-02-28T10:15:27.472Z,99.99
2017-02-28T10:16:27.458Z,99.99
2017-02-28T10:17:27.447Z,99.99
2017-02-28T10:18:27.425Z,99.99
2017-02-28T10:19:27.408Z,99.99
2017-02-28T10:20:27.390Z,99.99
2017-02-28T10:21:27.377Z,99.99
2017-02-28T10:22:27.370Z,99.99
2017-02-28T10:23:27.340Z,99.99
2017-02-28T10:24:27.331Z,99.99
2017-02-28T10:25:27.307Z,99.99
2017-02-28T10:26:27.294Z,99.99
2017-02-28T10:27:27.279Z,99.99
2017-02-28T10:28:27.258Z,99.99
2017-02-28T10:29:27.257Z,99.99
2017-02-28T10:30:27.218Z,99.99
2017-02-28T10:31:27.198Z,99.99
2017-02-28T10:32:27.188Z,99.99
2017-02-28T10:33:27.169Z,99.99
2017-02-28T10:34:27.151Z,99.99
2017-02-28T10:35:27.131Z,99.99
2017-02-28T10:36:27.116Z,99.99
2017-02-28T10:37:27.104Z,99.99
2017-02-28T10:38:27.077Z,99.99
2017-02-28T10:39:27.072Z,99.99
2017-02-28T10:40:27.056Z,99.99
2017-02-28T10:41:27.043Z,99.99
2017-02-28T10:42:27.019Z,99.99
2017-02-28T10:43:27.033Z,99.99
2017-02-28T10:44:26.982Z,99.84
2017-02-28T10:45:26.967Z,98.97
2017-02-28T10:46:26.941Z,99.93
2017-02-28T10:47:26.927Z,99.36
2017-02-28T10:48:26.914Z,99.55
2017-02-28T10:49:26.891Z,99.99
2017-02-28T10:50:26.874Z,99.99
2017-02-28T10:51:26.864Z,99.99
2017-02-28T10:52:26.836Z,99.99
2017-02-28T10:53:26.823Z,99.99
2017-02-28T10:54:26.810Z,99.99
2017-02-28T10:55:26.784Z,99.45
2017-02-28T10:56:26.770Z,99.64
2017-02-28T10:57:26.768Z,99.99
2017-02-28T10:58:26.748Z,99.45
2017-02-28T10:59:26.740Z,99.74
2017-02-28T11:00:26.723Z,99.64
2017-02-28T11:01:26.705Z,99.64
2017-02-28T11:02:26.683Z,99.99
2017-02-28T11:03:26.668Z,99.45
2017-02-28T11:04:26.647Z,97.74
2017-02-28T11:05:26.621Z,97.74
2017-02-28T11:06:26.601Z,97.36
2017-02-28T11:07:26.587Z,98.6
2017-02-28T11:08:26.568Z,98.22
2017-02-28T11:09:26.156Z,99.45
2017-02-28T11:10:26.536Z,99.36
2017-02-28T11:11:26.521Z,99.31
2017-02-28T11:12:26.502Z,98.17
2017-02-28T11:13:26.489Z,96.94
2017-02-28T11:14:26.085Z,97.13
2017-02-28T11:15:26.466Z,96.65
2017-02-28T11:16:26.452Z,97.31
2017-02-28T11:17:26.422Z,97.22
2017-02-28T11:18:26.410Z,97.22
2017-02-28T11:19:26.392Z,96.94
2017-02-28T11:20:26.377Z,96.26
2017-02-28T11:21:26.358Z,95.7
2017-02-28T11:22:25.947Z,96.26
2017-02-28T11:23:26.327Z,96.36
2017-02-28T11:24:26.321Z,97.03
2017-02-28T11:25:26.295Z,96.7
2017-02-28T11:26:26.283Z,94.51
2017-02-28T11:27:26.267Z,92.36
2017-02-28T11:28:26.250Z,92.18
2017-02-28T11:29:26.235Z,92.27
2017-02-28T11:30:26.244Z,92.08
2017-02-28T11:31:26.205Z,92.74
2017-02-28T11:32:26.212Z,91.94
2017-02-28T11:33:26.184Z,90.98
2017-02-28T11:34:26.169Z,89.36
2017-02-28T11:35:26.161Z,88.79
2017-02-28T11:36:26.142Z,87.02
2017-02-28T11:37:26.129Z,84.64
2017-02-28T11:38:26.117Z,84.36
2017-02-28T11:39:26.102Z,85.02
2017-02-28T11:40:26.090Z,85.27
2017-02-28T11:41:26.080Z,86.32
2017-02-28T11:42:25.683Z,88.31
2017-02-28T11:43:26.071Z,88.37
2017-02-28T11:44:26.060Z,90.56
2017-02-28T11:45:26.036Z,92.18
2017-02-28T11:46:26.021Z,91.31
2017-02-28T11:47:26.013Z,90.94
2017-02-28T11:48:26.007Z,91.41
2017-02-28T11:49:25.986Z,89.32
2017-02-28T11:50:25.969Z,89.03
2017-02-28T11:51:25.960Z,88.65
2017-02-28T11:52:25.975Z,88.27
2017-02-28T11:53:25.933Z,87.7
2017-02-28T11:54:25.926Z,89.22
2017-02-28T11:55:25.909Z,90.27
2017-02-28T11:56:25.505Z,91.13
2017-02-28T11:57:25.885Z,88.41
2017-02-28T11:58:25.877Z,86.55
2017-02-28T11:59:25.863Z,85.8
2017-02-28T12:00:25.854Z,86.18
2017-02-28T12:01:25.849Z,86.27
2017-02-28T12:02:25.834Z,86.46
2017-02-28T12:03:25.819Z,87.32
2017-02-28T12:04:25.805Z,87.98
2017-02-28T12:05:25.794Z,87.13
2017-02-28T12:06:25.789Z,87.75
2017-02-28T12:07:25.759Z,88.46
2017-02-28T12:08:25.761Z,88.65
2017-02-28T12:09:25.736Z,88.56
2017-02-28T12:10:25.736Z,87.13
2017-02-28T12:11:25.740Z,86.65
2017-02-28T12:12:25.692Z,88.08
2017-02-28T12:13:25.690Z,85.85
2017-02-28T12:14:25.671Z,87.18
2017-02-28T12:15:25.656Z,87.18
2017-02-28T12:16:25.638Z,86.42
2017-02-28T12:17:25.630Z,87.94
2017-02-28T12:18:25.627Z,86.8
2017-02-28T12:19:25.742Z,86.61
2017-02-28T12:20:25.605Z,86.04
2017-02-28T12:21:25.578Z,87.27
2017-02-28T12:22:25.555Z,87.27
2017-02-28T12:23:25.551Z,89.27
2017-02-28T12:24:25.539Z,88.89
2017-02-28T12:25:25.509Z,88.04
2017-02-28T12:26:25.504Z,89.84
2017-02-28T12:27:25.493Z,89.75
2017-02-28T12:28:25.465Z,89.84
2017-02-28T12:29:25.453Z,89.37
2017-02-28T12:30:25.434Z,90.22
2017-02-28T12:31:25.420Z,89.37
2017-02-28T12:32:25.410Z,90.51
2017-02-28T12:33:25.398Z,88.6
2017-02-28T12:34:25.378Z,89.37
2017-02-28T12:35:25.358Z,89.47
2017-02-28T12:36:25.346Z,87.08
2017-02-28T12:37:25.329Z,86.32
2017-02-28T12:38:25.321Z,87.23
2017-02-28T12:39:25.298Z,86.94
2017-02-28T12:40:24.887Z,86.84
2017-02-28T12:41:25.278Z,85.6
2017-02-28T12:42:25.261Z,84.17
2017-02-28T12:43:25.440Z,83.13
2017-02-28T12:44:25.236Z,82.18
2017-02-28T12:45:25.209Z,82.18
2017-02-28T12:46:24.811Z,81.79
2017-02-28T12:47:25.186Z,81.03
2017-02-28T12:48:25.191Z,79.64
2017-02-28T12:49:25.158Z,79.17
2017-02-28T12:50:24.753Z,78.65
2017-02-28T12:51:25.129Z,79.03
2017-02-28T12:52:25.109Z,78.65